sensor_id;sensor_type;location;lat;lon;timestamp;P1;durP1;ratioP1;P2;durP2;ratioP2
46835;SDS011;32573;51.290;6.926;2023-10-19T00:02:08;4.57;;;1.80;;
46835;SDS011;32573;51.290;6.926;2023-10-19T00:04:40;4.53;;;1.92;;
46835;SDS011;32573;51.290;6.926;2023-10-19T00:07:10;3.50;;;1.70;;
46835;SDS011;32573;51.290;6.926;2023-10-19T00:09:44;4.05;;;1.95;;
46835;SDS011;32573;51.290;6.926;2023-10-19T00:12:16;3.55;;;1.65;;
46835;SDS011;32573;51.290;6.926;2023-10-19T00:14:49;3.47;;;1.70;;
46835;SDS011;32573;51.290;6.926;2023-10-19T00:17:18;3.85;;;1.80;;
46835;SDS011;32573;51.290;6.926;2023-10-19T00:19:50;3.35;;;1.52;;
46835;SDS011;32573;51.290;6.926;2023-10-19T00:22:25;4.57;;;1.60;;
46835;SDS011;32573;51.290;6.926;2023-10-19T00:24:58;3.55;;;1.63;;
46835;SDS011;32573;51.290;6.926;2023-10-19T00:27:27;4.13;;;1.80;;
46835;SDS011;32573;51.290;6.926;2023-10-19T00:29:57;4.32;;;2.13;;
46835;SDS011;32573;51.290;6.926;2023-10-19T00:32:34;4.90;;;2.20;;
46835;SDS011;32573;51.290;6.926;2023-10-19T00:35:08;4.20;;;1.80;;
46835;SDS011;32573;51.290;6.926;2023-10-19T00:37:58;4.70;;;2.05;;
46835;SDS011;32573;51.290;6.926;2023-10-19T00:40:50;3.90;;;1.88;;
46835;SDS011;32573;51.290;6.926;2023-10-19T00:43:27;4.18;;;1.88;;
46835;SDS011;32573;51.290;6.926;2023-10-19T00:46:00;4.35;;;2.00;;
46835;SDS011;32573;51.290;6.926;2023-10-19T00:48:37;4.75;;;2.33;;
46835;SDS011;32573;51.290;6.926;2023-10-19T00:51:09;4.00;;;2.00;;
46835;SDS011;32573;51.290;6.926;2023-10-19T00:53:50;4.93;;;2.30;;
46835;SDS011;32573;51.290;6.926;2023-10-19T00:56:21;4.43;;;2.10;;
46835;SDS011;32573;51.290;6.926;2023-10-19T00:58:54;4.07;;;2.00;;
46835;SDS011;32573;51.290;6.926;2023-10-19T01:01:28;4.57;;;1.98;;
46835;SDS011;32573;51.290;6.926;2023-10-19T01:03:59;4.47;;;2.20;;
46835;SDS011;32573;51.290;6.926;2023-10-19T01:06:34;4.55;;;2.22;;
46835;SDS011;32573;51.290;6.926;2023-10-19T01:09:12;3.85;;;1.90;;
46835;SDS011;32573;51.290;6.926;2023-10-19T01:11:43;4.25;;;1.92;;
46835;SDS011;32573;51.290;6.926;2023-10-19T01:14:18;4.15;;;2.00;;
46835;SDS011;32573;51.290;6.926;2023-10-19T01:16:50;3.45;;;1.80;;
46835;SDS011;32573;51.290;6.926;2023-10-19T01:19:19;3.90;;;1.75;;
46835;SDS011;32573;51.290;6.926;2023-10-19T01:21:51;3.92;;;1.75;;
46835;SDS011;32573;51.290;6.926;2023-10-19T01:24:27;4.80;;;2.28;;
46835;SDS011;32573;51.290;6.926;2023-10-19T01:27:02;4.57;;;2.50;;
46835;SDS011;32573;51.290;6.926;2023-10-19T01:29:31;4.07;;;2.17;;
46835;SDS011;32573;51.290;6.926;2023-10-19T01:32:06;4.03;;;1.98;;
46835;SDS011;32573;51.290;6.926;2023-10-19T01:34:39;4.10;;;1.77;;
46835;SDS011;32573;51.290;6.926;2023-10-19T01:37:10;4.18;;;2.00;;
46835;SDS011;32573;51.290;6.926;2023-10-19T01:39:41;3.60;;;1.98;;
46835;SDS011;32573;51.290;6.926;2023-10-19T01:42:13;5.05;;;1.88;;
46835;SDS011;32573;51.290;6.926;2023-10-19T01:44:45;4.15;;;2.05;;
46835;SDS011;32573;51.290;6.926;2023-10-19T01:47:14;4.15;;;1.88;;
46835;SDS011;32573;51.290;6.926;2023-10-19T01:49:45;3.55;;;1.80;;
46835;SDS011;32573;51.290;6.926;2023-10-19T01:52:19;3.85;;;1.80;;
46835;SDS011;32573;51.290;6.926;2023-10-19T01:54:54;4.03;;;2.00;;
46835;SDS011;32573;51.290;6.926;2023-10-19T01:57:27;3.80;;;1.80;;
46835;SDS011;32573;51.290;6.926;2023-10-19T01:59:57;3.88;;;1.83;;
46835;SDS011;32573;51.290;6.926;2023-10-19T02:02:25;4.38;;;2.00;;
46835;SDS011;32573;51.290;6.926;2023-10-19T02:04:55;3.58;;;1.70;;
46835;SDS011;32573;51.290;6.926;2023-10-19T02:07:23;3.28;;;1.60;;
46835;SDS011;32573;51.290;6.926;2023-10-19T02:09:53;3.30;;;1.70;;
46835;SDS011;32573;51.290;6.926;2023-10-19T02:12:22;3.67;;;1.70;;
46835;SDS011;32573;51.290;6.926;2023-10-19T02:14:52;3.90;;;1.67;;
46835;SDS011;32573;51.290;6.926;2023-10-19T02:17:20;4.00;;;2.00;;
46835;SDS011;32573;51.290;6.926;2023-10-19T02:19:52;3.47;;;1.70;;
46835;SDS011;32573;51.290;6.926;2023-10-19T02:22:20;3.63;;;1.65;;
46835;SDS011;32573;51.290;6.926;2023-10-19T02:24:57;3.80;;;1.70;;
46835;SDS011;32573;51.290;6.926;2023-10-19T02:27:25;3.38;;;1.70;;
46835;SDS011;32573;51.290;6.926;2023-10-19T02:30:01;3.25;;;1.42;;
46835;SDS011;32573;51.290;6.926;2023-10-19T02:32:29;3.17;;;1.40;;
46835;SDS011;32573;51.290;6.926;2023-10-19T02:35:00;3.45;;;1.52;;
46835;SDS011;32573;51.290;6.926;2023-10-19T02:37:30;2.92;;;1.50;;
46835;SDS011;32573;51.290;6.926;2023-10-19T02:40:00;3.13;;;1.52;;
46835;SDS011;32573;51.290;6.926;2023-10-19T02:42:28;3.60;;;1.63;;
46835;SDS011;32573;51.290;6.926;2023-10-19T02:44:56;3.85;;;1.75;;
46835;SDS011;32573;51.290;6.926;2023-10-19T02:47:26;3.92;;;2.03;;
46835;SDS011;32573;51.290;6.926;2023-10-19T02:53:18;2.88;;;1.38;;
46835;SDS011;32573;51.290;6.926;2023-10-19T02:55:51;3.70;;;1.70;;
46835;SDS011;32573;51.290;6.926;2023-10-19T02:58:21;3.03;;;1.50;;
46835;SDS011;32573;51.290;6.926;2023-10-19T03:00:50;2.92;;;1.20;;
46835;SDS011;32573;51.290;6.926;2023-10-19T03:03:20;3.70;;;1.40;;
46835;SDS011;32573;51.290;6.926;2023-10-19T03:05:48;3.20;;;1.48;;
46835;SDS011;32573;51.290;6.926;2023-10-19T03:08:18;3.33;;;1.45;;
46835;SDS011;32573;51.290;6.926;2023-10-19T03:10:49;3.03;;;1.35;;
46835;SDS011;32573;51.290;6.926;2023-10-19T03:13:33;3.75;;;1.55;;
46835;SDS011;32573;51.290;6.926;2023-10-19T03:16:02;4.75;;;1.50;;
46835;SDS011;32573;51.290;6.926;2023-10-19T03:18:35;3.15;;;1.50;;
46835;SDS011;32573;51.290;6.926;2023-10-19T03:21:04;2.92;;;1.40;;
46835;SDS011;32573;51.290;6.926;2023-10-19T03:23:36;3.15;;;1.42;;
46835;SDS011;32573;51.290;6.926;2023-10-19T03:26:06;3.70;;;1.70;;
46835;SDS011;32573;51.290;6.926;2023-10-19T03:28:55;3.67;;;1.55;;
46835;SDS011;32573;51.290;6.926;2023-10-19T03:31:24;3.20;;;1.30;;
46835;SDS011;32573;51.290;6.926;2023-10-19T03:33:54;3.20;;;1.50;;
46835;SDS011;32573;51.290;6.926;2023-10-19T03:36:28;2.72;;;1.30;;
46835;SDS011;32573;51.290;6.926;2023-10-19T03:39:00;2.97;;;1.30;;
46835;SDS011;32573;51.290;6.926;2023-10-19T03:41:42;3.75;;;1.42;;
46835;SDS011;32573;51.290;6.926;2023-10-19T03:44:11;2.78;;;1.42;;
46835;SDS011;32573;51.290;6.926;2023-10-19T03:46:46;3.00;;;1.38;;
46835;SDS011;32573;51.290;6.926;2023-10-19T03:49:29;3.92;;;1.40;;
46835;SDS011;32573;51.290;6.926;2023-10-19T03:52:06;2.65;;;1.20;;
46835;SDS011;32573;51.290;6.926;2023-10-19T03:54:53;3.00;;;1.40;;
46835;SDS011;32573;51.290;6.926;2023-10-19T03:57:26;2.58;;;1.30;;
46835;SDS011;32573;51.290;6.926;2023-10-19T04:00:01;2.72;;;1.35;;
46835;SDS011;32573;51.290;6.926;2023-10-19T04:02:39;2.60;;;1.10;;
46835;SDS011;32573;51.290;6.926;2023-10-19T04:05:12;3.00;;;1.30;;
46835;SDS011;32573;51.290;6.926;2023-10-19T04:07:49;3.63;;;1.27;;
46835;SDS011;32573;51.290;6.926;2023-10-19T04:10:22;2.72;;;1.20;;
46835;SDS011;32573;51.290;6.926;2023-10-19T04:13:08;3.28;;;1.30;;
46835;SDS011;32573;51.290;6.926;2023-10-19T04:15:41;3.63;;;1.23;;
46835;SDS011;32573;51.290;6.926;2023-10-19T04:18:13;2.55;;;1.08;;
46835;SDS011;32573;51.290;6.926;2023-10-19T04:20:43;2.30;;;1.10;;
46835;SDS011;32573;51.290;6.926;2023-10-19T04:23:27;2.40;;;1.02;;
46835;SDS011;32573;51.290;6.926;2023-10-19T04:26:03;2.97;;;1.20;;
46835;SDS011;32573;51.290;6.926;2023-10-19T04:28:41;3.17;;;1.30;;
46835;SDS011;32573;51.290;6.926;2023-10-19T04:31:17;3.03;;;1.23;;
46835;SDS011;32573;51.290;6.926;2023-10-19T04:33:50;2.88;;;1.15;;
46835;SDS011;32573;51.290;6.926;2023-10-19T04:36:18;2.53;;;1.20;;
46835;SDS011;32573;51.290;6.926;2023-10-19T04:38:49;4.00;;;1.17;;
46835;SDS011;32573;51.290;6.926;2023-10-19T04:41:20;2.60;;;1.15;;
46835;SDS011;32573;51.290;6.926;2023-10-19T04:43:52;2.67;;;1.35;;
46835;SDS011;32573;51.290;6.926;2023-10-19T04:46:25;2.38;;;1.20;;
46835;SDS011;32573;51.290;6.926;2023-10-19T04:48:56;2.67;;;1.02;;
46835;SDS011;32573;51.290;6.926;2023-10-19T04:51:26;3.20;;;1.30;;
46835;SDS011;32573;51.290;6.926;2023-10-19T04:53:57;2.88;;;1.10;;
46835;SDS011;32573;51.290;6.926;2023-10-19T04:56:27;2.97;;;1.20;;
46835;SDS011;32573;51.290;6.926;2023-10-19T04:59:03;2.50;;;1.10;;
46835;SDS011;32573;51.290;6.926;2023-10-19T05:01:33;3.03;;;1.13;;
46835;SDS011;32573;51.290;6.926;2023-10-19T05:04:03;2.63;;;1.20;;
46835;SDS011;32573;51.290;6.926;2023-10-19T05:06:33;2.60;;;1.15;;
46835;SDS011;32573;51.290;6.926;2023-10-19T05:09:04;2.33;;;1.10;;
46835;SDS011;32573;51.290;6.926;2023-10-19T05:11:33;2.30;;;1.10;;
46835;SDS011;32573;51.290;6.926;2023-10-19T05:14:09;2.47;;;1.10;;
46835;SDS011;32573;51.290;6.926;2023-10-19T05:16:42;2.60;;;1.15;;
46835;SDS011;32573;51.290;6.926;2023-10-19T05:19:17;2.45;;;1.20;;
46835;SDS011;32573;51.290;6.926;2023-10-19T05:21:46;2.85;;;1.10;;
46835;SDS011;32573;51.290;6.926;2023-10-19T05:24:15;2.70;;;1.20;;
46835;SDS011;32573;51.290;6.926;2023-10-19T05:26:45;2.22;;;1.10;;
46835;SDS011;32573;51.290;6.926;2023-10-19T05:29:16;2.22;;;1.00;;
46835;SDS011;32573;51.290;6.926;2023-10-19T05:31:46;2.60;;;1.10;;
46835;SDS011;32573;51.290;6.926;2023-10-19T05:34:21;2.40;;;1.10;;
46835;SDS011;32573;51.290;6.926;2023-10-19T05:36:53;2.30;;;1.10;;
46835;SDS011;32573;51.290;6.926;2023-10-19T05:39:29;2.22;;;1.20;;
46835;SDS011;32573;51.290;6.926;2023-10-19T05:44:35;2.47;;;1.02;;
46835;SDS011;32573;51.290;6.926;2023-10-19T05:47:04;3.38;;;1.20;;
46835;SDS011;32573;51.290;6.926;2023-10-19T05:49:34;2.47;;;1.05;;
46835;SDS011;32573;51.290;6.926;2023-10-19T05:52:04;2.40;;;1.10;;
46835;SDS011;32573;51.290;6.926;2023-10-19T05:54:38;2.30;;;1.00;;
46835;SDS011;32573;51.290;6.926;2023-10-19T05:57:07;2.40;;;1.08;;
46835;SDS011;32573;51.290;6.926;2023-10-19T05:59:38;2.05;;;1.08;;
46835;SDS011;32573;51.290;6.926;2023-10-19T06:02:08;2.80;;;1.20;;
46835;SDS011;32573;51.290;6.926;2023-10-19T06:04:38;2.35;;;1.02;;
46835;SDS011;32573;51.290;6.926;2023-10-19T06:07:09;2.45;;;1.10;;
46835;SDS011;32573;51.290;6.926;2023-10-19T06:09:39;2.60;;;1.08;;
46835;SDS011;32573;51.290;6.926;2023-10-19T06:12:09;2.55;;;1.00;;
46835;SDS011;32573;51.290;6.926;2023-10-19T06:14:42;2.85;;;1.20;;
46835;SDS011;32573;51.290;6.926;2023-10-19T06:17:12;2.30;;;1.10;;
46835;SDS011;32573;51.290;6.926;2023-10-19T06:19:47;2.40;;;1.20;;
46835;SDS011;32573;51.290;6.926;2023-10-19T06:22:19;2.65;;;1.10;;
46835;SDS011;32573;51.290;6.926;2023-10-19T06:24:49;2.15;;;1.08;;
46835;SDS011;32573;51.290;6.926;2023-10-19T06:27:19;2.30;;;1.10;;
46835;SDS011;32573;51.290;6.926;2023-10-19T06:29:53;2.13;;;1.10;;
46835;SDS011;32573;51.290;6.926;2023-10-19T06:32:23;2.55;;;1.30;;
46835;SDS011;32573;51.290;6.926;2023-10-19T06:34:59;2.50;;;1.10;;
46835;SDS011;32573;51.290;6.926;2023-10-19T06:37:30;3.75;;;1.23;;
46835;SDS011;32573;51.290;6.926;2023-10-19T06:40:01;2.97;;;1.42;;
46835;SDS011;32573;51.290;6.926;2023-10-19T06:42:31;3.05;;;1.50;;
46835;SDS011;32573;51.290;6.926;2023-10-19T06:45:05;3.33;;;1.20;;
46835;SDS011;32573;51.290;6.926;2023-10-19T06:47:41;2.78;;;1.20;;
46835;SDS011;32573;51.290;6.926;2023-10-19T06:50:13;2.40;;;1.20;;
46835;SDS011;32573;51.290;6.926;2023-10-19T06:52:48;2.80;;;1.20;;
46835;SDS011;32573;51.290;6.926;2023-10-19T06:55:19;2.60;;;1.10;;
46835;SDS011;32573;51.290;6.926;2023-10-19T06:57:51;2.70;;;1.10;;
46835;SDS011;32573;51.290;6.926;2023-10-19T07:00:25;3.28;;;1.35;;
46835;SDS011;32573;51.290;6.926;2023-10-19T07:02:56;3.75;;;1.33;;
46835;SDS011;32573;51.290;6.926;2023-10-19T07:05:32;3.03;;;1.48;;
46835;SDS011;32573;51.290;6.926;2023-10-19T07:08:02;3.05;;;1.30;;
46835;SDS011;32573;51.290;6.926;2023-10-19T07:10:35;3.30;;;1.40;;
46835;SDS011;32573;51.290;6.926;2023-10-19T07:13:06;3.45;;;1.50;;
46835;SDS011;32573;51.290;6.926;2023-10-19T07:15:41;2.75;;;1.38;;
46835;SDS011;32573;51.290;6.926;2023-10-19T07:18:16;4.38;;;1.50;;
46835;SDS011;32573;51.290;6.926;2023-10-19T07:20:46;3.90;;;1.50;;
46835;SDS011;32573;51.290;6.926;2023-10-19T07:23:18;4.35;;;1.45;;
46835;SDS011;32573;51.290;6.926;2023-10-19T07:25:49;3.78;;;1.52;;
46835;SDS011;32573;51.290;6.926;2023-10-19T07:28:26;3.03;;;1.40;;
46835;SDS011;32573;51.290;6.926;2023-10-19T07:31:00;4.22;;;1.27;;
46835;SDS011;32573;51.290;6.926;2023-10-19T07:33:38;3.03;;;1.42;;
46835;SDS011;32573;51.290;6.926;2023-10-19T07:36:13;2.58;;;1.23;;
46835;SDS011;32573;51.290;6.926;2023-10-19T07:38:47;3.75;;;1.38;;
46835;SDS011;32573;51.290;6.926;2023-10-19T07:41:23;3.40;;;1.40;;
46835;SDS011;32573;51.290;6.926;2023-10-19T07:43:54;3.97;;;1.30;;
46835;SDS011;32573;51.290;6.926;2023-10-19T07:46:26;4.35;;;1.50;;
46835;SDS011;32573;51.290;6.926;2023-10-19T07:48:56;3.08;;;1.52;;
46835;SDS011;32573;51.290;6.926;2023-10-19T07:51:26;4.00;;;1.60;;
46835;SDS011;32573;51.290;6.926;2023-10-19T07:53:57;3.13;;;1.35;;
46835;SDS011;32573;51.290;6.926;2023-10-19T07:56:31;2.88;;;1.30;;
46835;SDS011;32573;51.290;6.926;2023-10-19T07:59:05;3.00;;;1.30;;
46835;SDS011;32573;51.290;6.926;2023-10-19T08:01:39;4.00;;;1.42;;
46835;SDS011;32573;51.290;6.926;2023-10-19T08:04:18;2.97;;;1.45;;
46835;SDS011;32573;51.290;6.926;2023-10-19T08:06:59;3.63;;;1.60;;
46835;SDS011;32573;51.290;6.926;2023-10-19T08:09:40;3.65;;;1.65;;
46835;SDS011;32573;51.290;6.926;2023-10-19T08:12:15;3.33;;;1.50;;
46835;SDS011;32573;51.290;6.926;2023-10-19T08:14:55;3.13;;;1.45;;
46835;SDS011;32573;51.290;6.926;2023-10-19T08:17:34;3.28;;;1.48;;
46835;SDS011;32573;51.290;6.926;2023-10-19T08:20:15;2.45;;;1.13;;
46835;SDS011;32573;51.290;6.926;2023-10-19T08:23:01;4.05;;;1.50;;
46835;SDS011;32573;51.290;6.926;2023-10-19T08:25:40;3.20;;;1.40;;
46835;SDS011;32573;51.290;6.926;2023-10-19T08:28:24;3.08;;;1.45;;
46835;SDS011;32573;51.290;6.926;2023-10-19T08:31:08;3.78;;;1.40;;
46835;SDS011;32573;51.290;6.926;2023-10-19T08:33:44;3.88;;;1.60;;
46835;SDS011;32573;51.290;6.926;2023-10-19T08:36:20;3.30;;;1.35;;
46835;SDS011;32573;51.290;6.926;2023-10-19T08:38:51;3.95;;;1.30;;
46835;SDS011;32573;51.290;6.926;2023-10-19T08:41:28;3.53;;;1.50;;
46835;SDS011;32573;51.290;6.926;2023-10-19T08:44:01;3.22;;;1.40;;
46835;SDS011;32573;51.290;6.926;2023-10-19T08:46:49;3.75;;;1.50;;
46835;SDS011;32573;51.290;6.926;2023-10-19T08:49:33;3.30;;;1.35;;
46835;SDS011;32573;51.290;6.926;2023-10-19T08:52:14;2.53;;;1.20;;
46835;SDS011;32573;51.290;6.926;2023-10-19T08:54:53;3.33;;;1.40;;
46835;SDS011;32573;51.290;6.926;2023-10-19T08:57:25;3.42;;;1.30;;
46835;SDS011;32573;51.290;6.926;2023-10-19T08:59:57;3.80;;;1.52;;
46835;SDS011;32573;51.290;6.926;2023-10-19T09:02:27;2.72;;;1.20;;
46835;SDS011;32573;51.290;6.926;2023-10-19T09:07:49;2.95;;;1.30;;
46835;SDS011;32573;51.290;6.926;2023-10-19T09:10:22;3.08;;;1.40;;
46835;SDS011;32573;51.290;6.926;2023-10-19T09:13:00;2.60;;;1.30;;
46835;SDS011;32573;51.290;6.926;2023-10-19T09:15:32;2.95;;;1.33;;
46835;SDS011;32573;51.290;6.926;2023-10-19T09:18:11;3.10;;;1.30;;
46835;SDS011;32573;51.290;6.926;2023-10-19T09:20:45;3.05;;;1.30;;
46835;SDS011;32573;51.290;6.926;2023-10-19T09:23:31;3.78;;;1.40;;
46835;SDS011;32573;51.290;6.926;2023-10-19T09:26:01;2.40;;;1.20;;
46835;SDS011;32573;51.290;6.926;2023-10-19T09:28:34;3.20;;;1.20;;
46835;SDS011;32573;51.290;6.926;2023-10-19T09:31:06;3.10;;;1.40;;
46835;SDS011;32573;51.290;6.926;2023-10-19T09:33:42;2.67;;;1.30;;
46835;SDS011;32573;51.290;6.926;2023-10-19T09:36:15;3.45;;;1.13;;
46835;SDS011;32573;51.290;6.926;2023-10-19T09:38:48;3.85;;;1.40;;
46835;SDS011;32573;51.290;6.926;2023-10-19T09:41:25;3.13;;;1.20;;
46835;SDS011;32573;51.290;6.926;2023-10-19T09:44:11;2.40;;;1.13;;
46835;SDS011;32573;51.290;6.926;2023-10-19T09:46:52;2.95;;;1.35;;
46835;SDS011;32573;51.290;6.926;2023-10-19T09:49:32;2.50;;;1.25;;
46835;SDS011;32573;51.290;6.926;2023-10-19T09:52:03;4.10;;;1.42;;
46835;SDS011;32573;51.290;6.926;2023-10-19T09:54:40;2.97;;;1.10;;
46835;SDS011;32573;51.290;6.926;2023-10-19T09:59:59;2.17;;;1.00;;
46835;SDS011;32573;51.290;6.926;2023-10-19T10:02:42;2.92;;;1.10;;
46835;SDS011;32573;51.290;6.926;2023-10-19T10:08:30;2.80;;;1.20;;
46835;SDS011;32573;51.290;6.926;2023-10-19T10:11:17;3.08;;;1.20;;
46835;SDS011;32573;51.290;6.926;2023-10-19T10:13:50;2.83;;;1.30;;
46835;SDS011;32573;51.290;6.926;2023-10-19T10:16:27;2.92;;;1.10;;
46835;SDS011;32573;51.290;6.926;2023-10-19T10:19:01;4.00;;;1.25;;
46835;SDS011;32573;51.290;6.926;2023-10-19T10:21:37;2.70;;;1.02;;
46835;SDS011;32573;51.290;6.926;2023-10-19T10:24:12;3.67;;;1.08;;
46835;SDS011;32573;51.290;6.926;2023-10-19T10:26:59;3.30;;;1.20;;
46835;SDS011;32573;51.290;6.926;2023-10-19T10:29:36;3.00;;;1.13;;
46835;SDS011;32573;51.290;6.926;2023-10-19T10:32:45;2.60;;;1.00;;
46835;SDS011;32573;51.290;6.926;2023-10-19T10:38:32;2.30;;;1.00;;
46835;SDS011;32573;51.290;6.926;2023-10-19T10:41:10;1.90;;;0.95;;
46835;SDS011;32573;51.290;6.926;2023-10-19T10:43:55;3.70;;;1.20;;
46835;SDS011;32573;51.290;6.926;2023-10-19T10:46:35;3.42;;;1.00;;
46835;SDS011;32573;51.290;6.926;2023-10-19T10:49:15;3.13;;;1.02;;
46835;SDS011;32573;51.290;6.926;2023-10-19T10:51:45;2.22;;;0.90;;
46835;SDS011;32573;51.290;6.926;2023-10-19T10:54:21;2.95;;;1.00;;
46835;SDS011;32573;51.290;6.926;2023-10-19T10:56:54;2.10;;;1.02;;
46835;SDS011;32573;51.290;6.926;2023-10-19T10:59:24;3.63;;;1.33;;
46835;SDS011;32573;51.290;6.926;2023-10-19T11:01:54;3.97;;;1.00;;
46835;SDS011;32573;51.290;6.926;2023-10-19T11:04:29;2.72;;;1.10;;
46835;SDS011;32573;51.290;6.926;2023-10-19T11:07:02;2.33;;;1.00;;
46835;SDS011;32573;51.290;6.926;2023-10-19T11:09:43;2.75;;;1.05;;
46835;SDS011;32573;51.290;6.926;2023-10-19T11:12:26;2.35;;;0.90;;
46835;SDS011;32573;51.290;6.926;2023-10-19T11:14:58;3.30;;;0.93;;
46835;SDS011;32573;51.290;6.926;2023-10-19T11:17:44;4.63;;;1.10;;
46835;SDS011;32573;51.290;6.926;2023-10-19T11:20:21;2.40;;;0.80;;
46835;SDS011;32573;51.290;6.926;2023-10-19T11:22:53;1.92;;;0.90;;
46835;SDS011;32573;51.290;6.926;2023-10-19T11:25:25;3.17;;;1.10;;
46835;SDS011;32573;51.290;6.926;2023-10-19T11:28:00;2.08;;;0.98;;
46835;SDS011;32573;51.290;6.926;2023-10-19T11:30:32;2.65;;;1.00;;
46835;SDS011;32573;51.290;6.926;2023-10-19T11:33:03;3.28;;;0.85;;
46835;SDS011;32573;51.290;6.926;2023-10-19T11:35:33;2.63;;;0.90;;
46835;SDS011;32573;51.290;6.926;2023-10-19T11:38:04;3.67;;;1.10;;
46835;SDS011;32573;51.290;6.926;2023-10-19T11:40:34;2.83;;;1.00;;
46835;SDS011;32573;51.290;6.926;2023-10-19T11:43:06;2.72;;;0.90;;
46835;SDS011;32573;51.290;6.926;2023-10-19T11:45:37;2.80;;;1.00;;
46835;SDS011;32573;51.290;6.926;2023-10-19T11:48:06;3.08;;;1.05;;
46835;SDS011;32573;51.290;6.926;2023-10-19T11:50:38;3.38;;;1.10;;
46835;SDS011;32573;51.290;6.926;2023-10-19T11:53:08;2.78;;;1.05;;
46835;SDS011;32573;51.290;6.926;2023-10-19T11:55:38;1.67;;;0.90;;
46835;SDS011;32573;51.290;6.926;2023-10-19T11:58:12;2.33;;;1.00;;
46835;SDS011;32573;51.290;6.926;2023-10-19T12:00:42;2.50;;;0.93;;
46835;SDS011;32573;51.290;6.926;2023-10-19T12:03:21;2.95;;;1.00;;
46835;SDS011;32573;51.290;6.926;2023-10-19T12:05:51;2.33;;;1.00;;
46835;SDS011;32573;51.290;6.926;2023-10-19T12:08:24;3.28;;;1.00;;
46835;SDS011;32573;51.290;6.926;2023-10-19T12:10:53;3.70;;;1.20;;
46835;SDS011;32573;51.290;6.926;2023-10-19T12:13:25;3.22;;;1.13;;
46835;SDS011;32573;51.290;6.926;2023-10-19T12:15:56;1.92;;;0.90;;
46835;SDS011;32573;51.290;6.926;2023-10-19T12:18:27;3.40;;;1.10;;
46835;SDS011;32573;51.290;6.926;2023-10-19T12:20:57;5.72;;;1.02;;
46835;SDS011;32573;51.290;6.926;2023-10-19T12:23:28;4.10;;;1.00;;
46835;SDS011;32573;51.290;6.926;2023-10-19T12:25:59;2.60;;;0.90;;
46835;SDS011;32573;51.290;6.926;2023-10-19T12:28:34;4.75;;;1.00;;
46835;SDS011;32573;51.290;6.926;2023-10-19T12:31:06;2.45;;;1.00;;
46835;SDS011;32573;51.290;6.926;2023-10-19T12:33:42;2.67;;;0.90;;
46835;SDS011;32573;51.290;6.926;2023-10-19T12:36:13;3.08;;;0.95;;
46835;SDS011;32573;51.290;6.926;2023-10-19T12:38:59;4.18;;;1.00;;
46835;SDS011;32573;51.290;6.926;2023-10-19T12:41:39;3.20;;;1.00;;
46835;SDS011;32573;51.290;6.926;2023-10-19T12:44:11;2.35;;;1.00;;
46835;SDS011;32573;51.290;6.926;2023-10-19T12:46:47;1.80;;;0.80;;
46835;SDS011;32573;51.290;6.926;2023-10-19T12:49:18;4.72;;;1.08;;
46835;SDS011;32573;51.290;6.926;2023-10-19T12:51:53;3.33;;;1.00;;
46835;SDS011;32573;51.290;6.926;2023-10-19T12:54:24;2.58;;;1.00;;
46835;SDS011;32573;51.290;6.926;2023-10-19T12:56:56;3.00;;;0.98;;
46835;SDS011;32573;51.290;6.926;2023-10-19T12:59:28;2.28;;;0.93;;
46835;SDS011;32573;51.290;6.926;2023-10-19T13:01:58;4.03;;;0.95;;
46835;SDS011;32573;51.290;6.926;2023-10-19T13:04:33;2.60;;;0.98;;
46835;SDS011;32573;51.290;6.926;2023-10-19T13:07:05;2.88;;;1.00;;
46835;SDS011;32573;51.290;6.926;2023-10-19T13:09:35;3.30;;;1.00;;
46835;SDS011;32573;51.290;6.926;2023-10-19T13:12:05;5.07;;;1.10;;
46835;SDS011;32573;51.290;6.926;2023-10-19T13:14:40;3.00;;;1.17;;
46835;SDS011;32573;51.290;6.926;2023-10-19T13:17:16;2.08;;;0.98;;
46835;SDS011;32573;51.290;6.926;2023-10-19T13:19:47;2.33;;;1.02;;
46835;SDS011;32573;51.290;6.926;2023-10-19T13:22:19;2.05;;;1.10;;
46835;SDS011;32573;51.290;6.926;2023-10-19T13:24:52;2.53;;;1.10;;
46835;SDS011;32573;51.290;6.926;2023-10-19T13:27:24;2.88;;;1.00;;
46835;SDS011;32573;51.290;6.926;2023-10-19T13:29:57;3.38;;;1.13;;
46835;SDS011;32573;51.290;6.926;2023-10-19T13:32:28;2.13;;;0.90;;
46835;SDS011;32573;51.290;6.926;2023-10-19T13:34:59;2.50;;;1.00;;
46835;SDS011;32573;51.290;6.926;2023-10-19T13:37:30;2.65;;;1.05;;
46835;SDS011;32573;51.290;6.926;2023-10-19T13:40:00;2.83;;;1.00;;
46835;SDS011;32573;51.290;6.926;2023-10-19T13:42:36;3.58;;;1.30;;
46835;SDS011;32573;51.290;6.926;2023-10-19T13:45:08;2.83;;;0.98;;
46835;SDS011;32573;51.290;6.926;2023-10-19T13:47:42;2.97;;;0.90;;
46835;SDS011;32573;51.290;6.926;2023-10-19T13:50:11;3.10;;;1.00;;
46835;SDS011;32573;51.290;6.926;2023-10-19T13:52:42;3.53;;;1.10;;
46835;SDS011;32573;51.290;6.926;2023-10-19T13:55:12;3.33;;;1.13;;
46835;SDS011;32573;51.290;6.926;2023-10-19T13:57:47;3.05;;;1.05;;
46835;SDS011;32573;51.290;6.926;2023-10-19T14:00:19;2.72;;;1.10;;
46835;SDS011;32573;51.290;6.926;2023-10-19T14:02:53;4.03;;;1.15;;
46835;SDS011;32573;51.290;6.926;2023-10-19T14:05:23;2.42;;;1.10;;
46835;SDS011;32573;51.290;6.926;2023-10-19T14:07:54;3.10;;;1.10;;
46835;SDS011;32573;51.290;6.926;2023-10-19T14:10:24;2.17;;;1.02;;
46835;SDS011;32573;51.290;6.926;2023-10-19T14:12:55;2.17;;;1.00;;
46835;SDS011;32573;51.290;6.926;2023-10-19T14:15:28;1.95;;;0.90;;
46835;SDS011;32573;51.290;6.926;2023-10-19T14:18:02;2.35;;;1.15;;
46835;SDS011;32573;51.290;6.926;2023-10-19T14:20:34;3.17;;;1.20;;
46835;SDS011;32573;51.290;6.926;2023-10-19T14:23:06;2.75;;;1.00;;
46835;SDS011;32573;51.290;6.926;2023-10-19T14:25:37;2.30;;;0.93;;
46835;SDS011;32573;51.290;6.926;2023-10-19T14:28:12;3.08;;;1.00;;
46835;SDS011;32573;51.290;6.926;2023-10-19T14:30:44;2.25;;;1.02;;
46835;SDS011;32573;51.290;6.926;2023-10-19T14:33:13;2.65;;;1.00;;
46835;SDS011;32573;51.290;6.926;2023-10-19T14:35:43;1.92;;;0.90;;
46835;SDS011;32573;51.290;6.926;2023-10-19T14:38:14;3.50;;;1.13;;
46835;SDS011;32573;51.290;6.926;2023-10-19T14:40:44;2.15;;;1.00;;
46835;SDS011;32573;51.290;6.926;2023-10-19T14:43:16;2.60;;;1.00;;
46835;SDS011;32573;51.290;6.926;2023-10-19T14:45:48;3.05;;;1.27;;
46835;SDS011;32573;51.290;6.926;2023-10-19T14:48:19;2.10;;;1.10;;
46835;SDS011;32573;51.290;6.926;2023-10-19T14:50:48;2.65;;;1.10;;
46835;SDS011;32573;51.290;6.926;2023-10-19T14:53:19;3.10;;;1.02;;
46835;SDS011;32573;51.290;6.926;2023-10-19T14:55:50;2.55;;;1.10;;
46835;SDS011;32573;51.290;6.926;2023-10-19T14:58:20;2.75;;;0.95;;
46835;SDS011;32573;51.290;6.926;2023-10-19T15:00:52;1.67;;;0.85;;
46835;SDS011;32573;51.290;6.926;2023-10-19T15:03:24;1.88;;;0.90;;
46835;SDS011;32573;51.290;6.926;2023-10-19T15:05:56;2.67;;;1.00;;
46835;SDS011;32573;51.290;6.926;2023-10-19T15:08:27;2.80;;;1.00;;
46835;SDS011;32573;51.290;6.926;2023-10-19T15:10:59;3.88;;;1.33;;
46835;SDS011;32573;51.290;6.926;2023-10-19T15:13:30;2.08;;;0.90;;
46835;SDS011;32573;51.290;6.926;2023-10-19T15:16:08;2.50;;;0.90;;
46835;SDS011;32573;51.290;6.926;2023-10-19T15:18:40;2.70;;;0.93;;
46835;SDS011;32573;51.290;6.926;2023-10-19T15:21:10;2.65;;;1.08;;
46835;SDS011;32573;51.290;6.926;2023-10-19T15:23:42;2.05;;;0.90;;
46835;SDS011;32573;51.290;6.926;2023-10-19T15:26:16;2.78;;;1.10;;
46835;SDS011;32573;51.290;6.926;2023-10-19T15:31:18;2.03;;;1.00;;
46835;SDS011;32573;51.290;6.926;2023-10-19T15:33:50;3.30;;;1.00;;
46835;SDS011;32573;51.290;6.926;2023-10-19T15:36:21;2.67;;;1.15;;
46835;SDS011;32573;51.290;6.926;2023-10-19T15:38:51;2.60;;;1.10;;
46835;SDS011;32573;51.290;6.926;2023-10-19T15:41:23;2.67;;;1.00;;
46835;SDS011;32573;51.290;6.926;2023-10-19T15:43:53;2.53;;;1.10;;
46835;SDS011;32573;51.290;6.926;2023-10-19T15:46:24;3.03;;;1.27;;